LFJR

Details ICAO LFJR (ANE)
Name Angers Marce
Region France
Timezone Europe/Paris (UTC+2.0)
Plans Departing 61
Arriving 39
Stats Elevation 194 ft / 59 m (AMSL)
Location 47.559822° -0.312207°
Runways 3
Magnetic Variation 0.076° W
Sunrise 2018-05-27 04:13:06 UTC / 2018-05-27 06:13:06 Local
Sunset 2018-05-27 19:46:36 UTC / 2018-05-27 21:46:36 Local
Advertisement - Login to hide

Runways

ID Width Length Bearing (true) Bearing (mag) Surface Threshold Offset Overrun Length
08 135 ft / 41 m 5,405 ft / 1,647 m 80.99° 81.07° Asphalt 120 ft / 37 m 0 ft / 0 m
08L 135 ft / 41 m 2,131 ft / 650 m 81.00° 81.08° Grass 0 ft / 0 m 0 ft / 0 m
08R 300 ft / 91 m 3,303 ft / 1,007 m 81.00° 81.08° Grass 0 ft / 0 m 0 ft / 0 m
26 135 ft / 41 m 5,405 ft / 1,647 m 261.01° 261.09° Asphalt 250 ft / 76 m 0 ft / 0 m
26L 300 ft / 91 m 3,303 ft / 1,007 m 261.00° 261.08° Grass 0 ft / 0 m 0 ft / 0 m
26R 135 ft / 41 m 2,131 ft / 650 m 261.00° 261.08° Grass 0 ft / 0 m 0 ft / 0 m

Approach Navaids

Runway Type Ident Frequency Range Bearing (true) Bearing (mag) Slope Elevation
26 Localiser AS 108.90 MHz 18 nm / 33 km 261.07° 261.15° - 194 ft / 59 m (AMSL)

Map

Weather


0- 5 10 15 20 25 30 35+ Temperature / ° C

Clouds and Precipitation
Forecast for 2018-05-27 18:00 UTC. Updated 42 minutes ago

Ground ~20,000 ft ~40,000 ft Winds

METAR

LFJR 271800Z AUTO 15002KT 9999 ///TCU 23/17 Q1014

TAF

Not found
Warning: Do not use this data for real-world aviation or navigation. No guarantee of current accuracy is given.